sensor_id;sensor_type;location;lat;lon;timestamp;temperature;humidity
610;DHT22;292;48.800;9.216;2022-08-11T00:01:44;27.90;37.80
610;DHT22;292;48.800;9.216;2022-08-11T00:04:14;27.90;37.70
610;DHT22;292;48.800;9.216;2022-08-11T00:06:43;27.90;37.70
610;DHT22;292;48.800;9.216;2022-08-11T00:09:15;27.90;37.70
610;DHT22;292;48.800;9.216;2022-08-11T00:11:46;27.90;37.60
610;DHT22;292;48.800;9.216;2022-08-11T00:14:17;27.90;37.60
610;DHT22;292;48.800;9.216;2022-08-11T00:16:53;27.90;37.40
610;DHT22;292;48.800;9.216;2022-08-11T00:19:24;27.90;37.00
610;DHT22;292;48.800;9.216;2022-08-11T00:21:53;27.90;37.00
610;DHT22;292;48.800;9.216;2022-08-11T00:24:21;27.90;37.20
610;DHT22;292;48.800;9.216;2022-08-11T00:26:50;27.90;37.20
610;DHT22;292;48.800;9.216;2022-08-11T00:29:19;27.90;37.20
610;DHT22;292;48.800;9.216;2022-08-11T00:31:49;27.90;37.30
610;DHT22;292;48.800;9.216;2022-08-11T00:34:19;27.90;37.40
610;DHT22;292;48.800;9.216;2022-08-11T00:36:51;27.90;37.40
610;DHT22;292;48.800;9.216;2022-08-11T00:39:21;27.90;37.40
610;DHT22;292;48.800;9.216;2022-08-11T00:42:05;27.90;37.60
610;DHT22;292;48.800;9.216;2022-08-11T00:44:42;27.90;37.60
610;DHT22;292;48.800;9.216;2022-08-11T00:47:20;27.90;37.60
610;DHT22;292;48.800;9.216;2022-08-11T00:50:00;27.90;37.70
610;DHT22;292;48.800;9.216;2022-08-11T00:52:48;27.90;38.00
610;DHT22;292;48.800;9.216;2022-08-11T00:55:45;27.80;37.80
610;DHT22;292;48.800;9.216;2022-08-11T00:58:46;27.90;37.80
610;DHT22;292;48.800;9.216;2022-08-11T01:01:33;27.80;37.80
610;DHT22;292;48.800;9.216;2022-08-11T01:04:19;27.90;38.00
610;DHT22;292;48.800;9.216;2022-08-11T01:10:02;27.90;37.80
610;DHT22;292;48.800;9.216;2022-08-11T01:12:52;27.80;37.80
610;DHT22;292;48.800;9.216;2022-08-11T01:25:22;27.80;37.80
610;DHT22;292;48.800;9.216;2022-08-11T01:31:36;27.80;37.80
610;DHT22;292;48.800;9.216;2022-08-11T01:34:22;27.80;38.00
610;DHT22;292;48.800;9.216;2022-08-11T01:37:15;27.80;38.00
610;DHT22;292;48.800;9.216;2022-08-11T01:40:16;27.80;38.00
610;DHT22;292;48.800;9.216;2022-08-11T01:46:13;27.80;38.00
610;DHT22;292;48.800;9.216;2022-08-11T01:48:52;27.80;38.00
610;DHT22;292;48.800;9.216;2022-08-11T01:51:26;27.80;37.80
610;DHT22;292;48.800;9.216;2022-08-11T01:54:03;27.80;37.80
610;DHT22;292;48.800;9.216;2022-08-11T01:56:52;27.80;37.80
610;DHT22;292;48.800;9.216;2022-08-11T01:59:25;27.80;37.70
610;DHT22;292;48.800;9.216;2022-08-11T02:02:16;27.80;37.80
610;DHT22;292;48.800;9.216;2022-08-11T02:04:50;27.80;37.80
610;DHT22;292;48.800;9.216;2022-08-11T02:07:30;27.80;37.70
610;DHT22;292;48.800;9.216;2022-08-11T02:10:20;27.80;37.60
610;DHT22;292;48.800;9.216;2022-08-11T02:13:14;27.80;37.60
610;DHT22;292;48.800;9.216;2022-08-11T02:15:45;27.80;37.30
610;DHT22;292;48.800;9.216;2022-08-11T02:18:19;27.80;37.40
610;DHT22;292;48.800;9.216;2022-08-11T02:20:50;27.80;37.60
610;DHT22;292;48.800;9.216;2022-08-11T02:23:42;27.80;37.70
610;DHT22;292;48.800;9.216;2022-08-11T02:26:19;27.80;37.80
610;DHT22;292;48.800;9.216;2022-08-11T02:28:56;27.80;37.70
610;DHT22;292;48.800;9.216;2022-08-11T02:31:37;27.80;37.80
610;DHT22;292;48.800;9.216;2022-08-11T02:34:31;27.80;37.70
610;DHT22;292;48.800;9.216;2022-08-11T02:37:09;27.80;37.70
610;DHT22;292;48.800;9.216;2022-08-11T02:39:46;27.80;37.70
610;DHT22;292;48.800;9.216;2022-08-11T02:42:26;27.80;37.70
610;DHT22;292;48.800;9.216;2022-08-11T02:45:18;27.80;37.70
610;DHT22;292;48.800;9.216;2022-08-11T02:48:00;27.80;37.70
610;DHT22;292;48.800;9.216;2022-08-11T02:50:55;27.80;37.70
610;DHT22;292;48.800;9.216;2022-08-11T02:53:35;27.80;37.70
610;DHT22;292;48.800;9.216;2022-08-11T02:56:10;27.80;37.70
610;DHT22;292;48.800;9.216;2022-08-11T02:58:50;27.80;37.70
610;DHT22;292;48.800;9.216;2022-08-11T03:01:40;27.80;37.70
610;DHT22;292;48.800;9.216;2022-08-11T03:04:12;27.80;37.70
610;DHT22;292;48.800;9.216;2022-08-11T03:06:49;27.80;37.70
610;DHT22;292;48.800;9.216;2022-08-11T03:09:23;27.80;37.70
610;DHT22;292;48.800;9.216;2022-08-11T03:11:59;27.80;37.70
610;DHT22;292;48.800;9.216;2022-08-11T03:14:52;27.80;37.70
610;DHT22;292;48.800;9.216;2022-08-11T03:17:45;27.80;37.70
610;DHT22;292;48.800;9.216;2022-08-11T03:20:26;27.80;37.70
610;DHT22;292;48.800;9.216;2022-08-11T03:23:13;27.80;37.70
610;DHT22;292;48.800;9.216;2022-08-11T03:25:48;27.80;37.70
610;DHT22;292;48.800;9.216;2022-08-11T03:28:26;27.80;37.60
610;DHT22;292;48.800;9.216;2022-08-11T03:31:17;27.80;37.60
610;DHT22;292;48.800;9.216;2022-08-11T03:33:52;27.80;37.60
610;DHT22;292;48.800;9.216;2022-08-11T03:36:53;27.80;37.60
610;DHT22;292;48.800;9.216;2022-08-11T03:39:31;27.80;37.60
610;DHT22;292;48.800;9.216;2022-08-11T03:42:09;27.80;37.60
610;DHT22;292;48.800;9.216;2022-08-11T03:44:49;27.80;37.70
610;DHT22;292;48.800;9.216;2022-08-11T03:47:36;27.80;37.70
610;DHT22;292;48.800;9.216;2022-08-11T03:50:21;27.80;37.70
610;DHT22;292;48.800;9.216;2022-08-11T03:53:01;27.80;37.60
610;DHT22;292;48.800;9.216;2022-08-11T04:01:54;27.80;37.60
610;DHT22;292;48.800;9.216;2022-08-11T04:04:57;27.80;37.70
610;DHT22;292;48.800;9.216;2022-08-11T04:11:05;27.80;37.70
610;DHT22;292;48.800;9.216;2022-08-11T04:17:17;27.80;37.60
610;DHT22;292;48.800;9.216;2022-08-11T04:20:17;27.80;37.60
610;DHT22;292;48.800;9.216;2022-08-11T04:22:57;27.80;37.60
610;DHT22;292;48.800;9.216;2022-08-11T04:25:55;27.80;37.60
610;DHT22;292;48.800;9.216;2022-08-11T04:28:54;27.80;37.60
610;DHT22;292;48.800;9.216;2022-08-11T04:31:42;27.80;37.60
610;DHT22;292;48.800;9.216;2022-08-11T04:34:36;27.80;37.60
610;DHT22;292;48.800;9.216;2022-08-11T04:37:34;27.80;37.60
610;DHT22;292;48.800;9.216;2022-08-11T04:40:17;27.80;37.60
610;DHT22;292;48.800;9.216;2022-08-11T04:46:48;27.80;37.60
610;DHT22;292;48.800;9.216;2022-08-11T04:49:48;27.80;37.70
610;DHT22;292;48.800;9.216;2022-08-11T04:53:01;27.80;37.60
610;DHT22;292;48.800;9.216;2022-08-11T04:56:07;27.70;37.70
610;DHT22;292;48.800;9.216;2022-08-11T04:59:19;27.70;37.70
610;DHT22;292;48.800;9.216;2022-08-11T05:05:20;27.80;37.70
610;DHT22;292;48.800;9.216;2022-08-11T05:08:50;27.70;37.80
610;DHT22;292;48.800;9.216;2022-08-11T05:14:31;27.80;38.00
610;DHT22;292;48.800;9.216;2022-08-11T05:17:27;27.80;38.00
610;DHT22;292;48.800;9.216;2022-08-11T05:20:14;27.80;36.90
610;DHT22;292;48.800;9.216;2022-08-11T05:23:03;27.80;35.60
610;DHT22;292;48.800;9.216;2022-08-11T05:25:58;27.80;35.20
610;DHT22;292;48.800;9.216;2022-08-11T05:28:53;27.80;35.00
610;DHT22;292;48.800;9.216;2022-08-11T05:31:41;27.70;35.20
610;DHT22;292;48.800;9.216;2022-08-11T05:34:29;27.70;35.40
610;DHT22;292;48.800;9.216;2022-08-11T05:37:22;27.60;35.80
610;DHT22;292;48.800;9.216;2022-08-11T05:39:55;27.60;36.10
610;DHT22;292;48.800;9.216;2022-08-11T05:42:49;27.60;35.70
610;DHT22;292;48.800;9.216;2022-08-11T05:45:40;27.60;36.00
610;DHT22;292;48.800;9.216;2022-08-11T05:48:29;27.50;36.10
610;DHT22;292;48.800;9.216;2022-08-11T05:51:15;27.50;35.70
610;DHT22;292;48.800;9.216;2022-08-11T05:54:00;27.50;35.80
610;DHT22;292;48.800;9.216;2022-08-11T05:56:49;27.50;35.80
610;DHT22;292;48.800;9.216;2022-08-11T05:59:22;27.40;35.70
610;DHT22;292;48.800;9.216;2022-08-11T06:01:50;27.40;35.70
610;DHT22;292;48.800;9.216;2022-08-11T06:04:20;27.40;35.70
610;DHT22;292;48.800;9.216;2022-08-11T06:06:57;27.40;35.60
610;DHT22;292;48.800;9.216;2022-08-11T06:09:27;27.40;35.60
610;DHT22;292;48.800;9.216;2022-08-11T06:11:57;27.40;36.00
610;DHT22;292;48.800;9.216;2022-08-11T06:14:26;27.40;35.60
610;DHT22;292;48.800;9.216;2022-08-11T06:16:57;27.40;35.60
610;DHT22;292;48.800;9.216;2022-08-11T06:19:35;27.30;35.20
610;DHT22;292;48.800;9.216;2022-08-11T06:22:05;27.30;34.80
610;DHT22;292;48.800;9.216;2022-08-11T06:24:36;27.30;34.80
610;DHT22;292;48.800;9.216;2022-08-11T06:27:03;27.30;34.90
610;DHT22;292;48.800;9.216;2022-08-11T06:29:36;27.30;34.90
610;DHT22;292;48.800;9.216;2022-08-11T06:32:07;27.30;35.00
610;DHT22;292;48.800;9.216;2022-08-11T06:34:56;27.30;35.00
610;DHT22;292;48.800;9.216;2022-08-11T06:37:34;27.30;35.00
610;DHT22;292;48.800;9.216;2022-08-11T06:40:09;27.30;35.00
610;DHT22;292;48.800;9.216;2022-08-11T06:42:49;27.30;34.90
610;DHT22;292;48.800;9.216;2022-08-11T06:45:29;27.30;34.90
610;DHT22;292;48.800;9.216;2022-08-11T06:47:58;27.20;34.90
610;DHT22;292;48.800;9.216;2022-08-11T06:50:26;27.30;35.00
610;DHT22;292;48.800;9.216;2022-08-11T06:53:14;27.30;35.00
610;DHT22;292;48.800;9.216;2022-08-11T06:55:45;27.30;35.00
610;DHT22;292;48.800;9.216;2022-08-11T06:58:32;27.30;35.00
610;DHT22;292;48.800;9.216;2022-08-11T07:01:31;27.30;35.00
610;DHT22;292;48.800;9.216;2022-08-11T07:04:19;27.30;35.20
610;DHT22;292;48.800;9.216;2022-08-11T07:10:22;27.30;35.30
610;DHT22;292;48.800;9.216;2022-08-11T07:13:11;27.30;35.40
610;DHT22;292;48.800;9.216;2022-08-11T07:15:57;27.30;35.40
610;DHT22;292;48.800;9.216;2022-08-11T07:18:30;27.30;36.00
610;DHT22;292;48.800;9.216;2022-08-11T07:21:20;27.30;35.80
610;DHT22;292;48.800;9.216;2022-08-11T07:24:12;27.40;35.80
610;DHT22;292;48.800;9.216;2022-08-11T07:26:58;27.40;35.80
610;DHT22;292;48.800;9.216;2022-08-11T07:29:45;27.40;36.00
610;DHT22;292;48.800;9.216;2022-08-11T07:32:21;27.40;36.20
610;DHT22;292;48.800;9.216;2022-08-11T07:34:57;27.40;36.40
610;DHT22;292;48.800;9.216;2022-08-11T07:37:26;27.40;36.00
610;DHT22;292;48.800;9.216;2022-08-11T07:39:58;27.40;36.00
610;DHT22;292;48.800;9.216;2022-08-11T07:42:29;27.40;36.20
610;DHT22;292;48.800;9.216;2022-08-11T07:45:03;27.40;36.90
610;DHT22;292;48.800;9.216;2022-08-11T07:47:48;27.40;36.60
610;DHT22;292;48.800;9.216;2022-08-11T07:50:35;27.40;36.80
610;DHT22;292;48.800;9.216;2022-08-11T07:53:23;27.40;37.60
610;DHT22;292;48.800;9.216;2022-08-11T07:55:52;27.40;36.80
610;DHT22;292;48.800;9.216;2022-08-11T07:58:21;27.50;36.80
610;DHT22;292;48.800;9.216;2022-08-11T08:01:06;27.50;36.90
610;DHT22;292;48.800;9.216;2022-08-11T08:03:50;27.50;37.60
610;DHT22;292;48.800;9.216;2022-08-11T08:06:38;27.50;37.60
610;DHT22;292;48.800;9.216;2022-08-11T08:09:23;27.50;37.30
610;DHT22;292;48.800;9.216;2022-08-11T08:12:09;27.50;36.60
610;DHT22;292;48.800;9.216;2022-08-11T08:14:55;27.50;36.00
610;DHT22;292;48.800;9.216;2022-08-11T08:17:41;27.50;36.20
610;DHT22;292;48.800;9.216;2022-08-11T08:20:24;27.50;37.20
610;DHT22;292;48.800;9.216;2022-08-11T08:22:55;27.50;37.60
610;DHT22;292;48.800;9.216;2022-08-11T08:25:23;27.50;38.10
610;DHT22;292;48.800;9.216;2022-08-11T08:27:53;27.50;38.00
610;DHT22;292;48.800;9.216;2022-08-11T08:30:21;27.50;36.60
610;DHT22;292;48.800;9.216;2022-08-11T08:33:07;27.60;37.30
610;DHT22;292;48.800;9.216;2022-08-11T08:35:35;27.50;37.40
610;DHT22;292;48.800;9.216;2022-08-11T08:38:05;27.60;37.80
610;DHT22;292;48.800;9.216;2022-08-11T08:43:10;27.60;38.50
610;DHT22;292;48.800;9.216;2022-08-11T09:39:41;26.90;38.00
610;DHT22;292;48.800;9.216;2022-08-11T09:42:26;26.80;38.40
610;DHT22;292;48.800;9.216;2022-08-11T09:45:15;26.90;38.60
610;DHT22;292;48.800;9.216;2022-08-11T09:47:42;27.00;39.40
610;DHT22;292;48.800;9.216;2022-08-11T09:50:11;27.00;39.70
610;DHT22;292;48.800;9.216;2022-08-11T09:52:41;27.10;41.20
610;DHT22;292;48.800;9.216;2022-08-11T09:55:13;27.20;42.50
610;DHT22;292;48.800;9.216;2022-08-11T09:57:44;27.30;42.40
610;DHT22;292;48.800;9.216;2022-08-11T10:00:31;27.40;41.80
610;DHT22;292;48.800;9.216;2022-08-11T10:03:02;27.40;41.80
610;DHT22;292;48.800;9.216;2022-08-11T10:05:32;27.40;42.00
610;DHT22;292;48.800;9.216;2022-08-11T10:08:18;27.50;41.80
610;DHT22;292;48.800;9.216;2022-08-11T10:10:48;27.50;41.70
610;DHT22;292;48.800;9.216;2022-08-11T10:13:17;27.50;41.40
610;DHT22;292;48.800;9.216;2022-08-11T10:15:52;27.60;41.00
610;DHT22;292;48.800;9.216;2022-08-11T10:18:23;27.60;40.60
610;DHT22;292;48.800;9.216;2022-08-11T10:21:30;27.60;40.20
610;DHT22;292;48.800;9.216;2022-08-11T10:24:04;27.60;40.20
610;DHT22;292;48.800;9.216;2022-08-11T10:26:53;27.60;39.80
610;DHT22;292;48.800;9.216;2022-08-11T10:29:25;27.60;39.60
610;DHT22;292;48.800;9.216;2022-08-11T10:32:15;27.70;39.20
610;DHT22;292;48.800;9.216;2022-08-11T10:35:02;27.70;39.30
610;DHT22;292;48.800;9.216;2022-08-11T10:37:35;27.70;39.00
610;DHT22;292;48.800;9.216;2022-08-11T10:40:05;27.70;38.80
610;DHT22;292;48.800;9.216;2022-08-11T10:42:35;27.70;38.50
610;DHT22;292;48.800;9.216;2022-08-11T10:45:21;27.70;38.50
610;DHT22;292;48.800;9.216;2022-08-11T10:48:07;27.70;38.20
610;DHT22;292;48.800;9.216;2022-08-11T10:50:35;27.70;38.10
610;DHT22;292;48.800;9.216;2022-08-11T10:53:20;27.70;38.10
610;DHT22;292;48.800;9.216;2022-08-11T10:56:06;27.70;38.00
610;DHT22;292;48.800;9.216;2022-08-11T10:58:53;27.70;38.00
610;DHT22;292;48.800;9.216;2022-08-11T11:01:24;27.70;37.60
610;DHT22;292;48.800;9.216;2022-08-11T11:03:54;27.70;37.60
610;DHT22;292;48.800;9.216;2022-08-11T11:06:27;27.70;37.30
610;DHT22;292;48.800;9.216;2022-08-11T11:08:59;27.80;37.60
610;DHT22;292;48.800;9.216;2022-08-11T11:11:30;27.80;37.80
610;DHT22;292;48.800;9.216;2022-08-11T11:14:19;27.80;37.80
610;DHT22;292;48.800;9.216;2022-08-11T11:17:05;27.80;37.20
610;DHT22;292;48.800;9.216;2022-08-11T11:19:56;27.80;36.80
610;DHT22;292;48.800;9.216;2022-08-11T11:22:27;27.80;34.80
610;DHT22;292;48.800;9.216;2022-08-11T11:25:19;27.80;33.30
610;DHT22;292;48.800;9.216;2022-08-11T11:28:01;27.80;32.90
610;DHT22;292;48.800;9.216;2022-08-11T11:30:36;27.80;31.60
610;DHT22;292;48.800;9.216;2022-08-11T11:33:11;27.80;31.30
610;DHT22;292;48.800;9.216;2022-08-11T11:35:48;27.80;31.20
610;DHT22;292;48.800;9.216;2022-08-11T11:38:19;27.80;30.50
610;DHT22;292;48.800;9.216;2022-08-11T11:40:47;27.80;30.20
610;DHT22;292;48.800;9.216;2022-08-11T11:43:35;27.80;30.10
610;DHT22;292;48.800;9.216;2022-08-11T11:46:05;27.80;30.20
610;DHT22;292;48.800;9.216;2022-08-11T11:48:36;27.80;30.10
610;DHT22;292;48.800;9.216;2022-08-11T11:51:03;27.80;29.80
610;DHT22;292;48.800;9.216;2022-08-11T11:53:31;27.80;29.80
610;DHT22;292;48.800;9.216;2022-08-11T11:55:59;27.80;29.60
610;DHT22;292;48.800;9.216;2022-08-11T11:58:28;27.80;29.60
610;DHT22;292;48.800;9.216;2022-08-11T12:01:14;27.80;29.70
610;DHT22;292;48.800;9.216;2022-08-11T12:03:50;27.80;29.60
610;DHT22;292;48.800;9.216;2022-08-11T12:06:20;27.80;29.40
610;DHT22;292;48.800;9.216;2022-08-11T12:08:48;27.80;28.90
610;DHT22;292;48.800;9.216;2022-08-11T12:11:16;27.90;28.90
610;DHT22;292;48.800;9.216;2022-08-11T12:14:04;27.90;29.00
610;DHT22;292;48.800;9.216;2022-08-11T12:16:35;27.90;28.70
610;DHT22;292;48.800;9.216;2022-08-11T12:19:05;27.90;28.70
610;DHT22;292;48.800;9.216;2022-08-11T12:21:34;27.90;28.80
610;DHT22;292;48.800;9.216;2022-08-11T12:24:03;27.90;29.10
610;DHT22;292;48.800;9.216;2022-08-11T12:26:48;27.90;28.80
610;DHT22;292;48.800;9.216;2022-08-11T12:29:45;27.90;28.70
610;DHT22;292;48.800;9.216;2022-08-11T12:32:15;27.90;28.40
610;DHT22;292;48.800;9.216;2022-08-11T12:34:42;27.90;28.50
610;DHT22;292;48.800;9.216;2022-08-11T12:37:10;27.90;28.60
610;DHT22;292;48.800;9.216;2022-08-11T12:39:42;27.90;28.50
610;DHT22;292;48.800;9.216;2022-08-11T12:42:30;27.90;29.00
610;DHT22;292;48.800;9.216;2022-08-11T12:45:16;27.90;29.10
610;DHT22;292;48.800;9.216;2022-08-11T12:48:14;27.90;29.10
610;DHT22;292;48.800;9.216;2022-08-11T12:51:02;27.90;29.90
610;DHT22;292;48.800;9.216;2022-08-11T12:53:53;27.90;29.10
610;DHT22;292;48.800;9.216;2022-08-11T12:56:22;27.90;28.90
610;DHT22;292;48.800;9.216;2022-08-11T12:59:07;27.90;28.20
610;DHT22;292;48.800;9.216;2022-08-11T13:01:53;27.90;28.50
610;DHT22;292;48.800;9.216;2022-08-11T13:04:41;27.90;28.10
610;DHT22;292;48.800;9.216;2022-08-11T13:07:24;27.90;28.60
610;DHT22;292;48.800;9.216;2022-08-11T13:09:52;27.90;28.30
610;DHT22;292;48.800;9.216;2022-08-11T13:12:22;27.90;28.20
610;DHT22;292;48.800;9.216;2022-08-11T13:15:09;27.90;28.80
610;DHT22;292;48.800;9.216;2022-08-11T13:17:38;27.90;28.90
610;DHT22;292;48.800;9.216;2022-08-11T13:20:10;27.90;29.30
610;DHT22;292;48.800;9.216;2022-08-11T13:22:41;27.90;27.90
610;DHT22;292;48.800;9.216;2022-08-11T13:25:11;27.90;27.70
610;DHT22;292;48.800;9.216;2022-08-11T13:27:41;27.90;27.40
610;DHT22;292;48.800;9.216;2022-08-11T13:30:09;27.90;27.60
610;DHT22;292;48.800;9.216;2022-08-11T13:32:54;27.90;28.20
610;DHT22;292;48.800;9.216;2022-08-11T13:35:23;27.90;27.80
610;DHT22;292;48.800;9.216;2022-08-11T13:37:52;27.90;28.20
610;DHT22;292;48.800;9.216;2022-08-11T13:40:21;27.90;28.10
610;DHT22;292;48.800;9.216;2022-08-11T13:42:53;27.90;27.70
610;DHT22;292;48.800;9.216;2022-08-11T13:45:22;27.90;27.60
610;DHT22;292;48.800;9.216;2022-08-11T13:47:51;27.90;27.40
610;DHT22;292;48.800;9.216;2022-08-11T13:50:22;27.90;27.40
610;DHT22;292;48.800;9.216;2022-08-11T13:53:11;27.90;27.10
610;DHT22;292;48.800;9.216;2022-08-11T13:55:41;27.90;26.90
610;DHT22;292;48.800;9.216;2022-08-11T13:58:10;28.00;27.60
610;DHT22;292;48.800;9.216;2022-08-11T14:00:38;28.00;26.90
610;DHT22;292;48.800;9.216;2022-08-11T14:03:09;28.10;26.90
610;DHT22;292;48.800;9.216;2022-08-11T14:05:41;28.10;27.20
610;DHT22;292;48.800;9.216;2022-08-11T14:08:14;28.20;27.90
610;DHT22;292;48.800;9.216;2022-08-11T14:10:43;28.20;28.00
610;DHT22;292;48.800;9.216;2022-08-11T14:13:13;28.30;28.10
610;DHT22;292;48.800;9.216;2022-08-11T14:16:18;28.30;28.50
610;DHT22;292;48.800;9.216;2022-08-11T14:18:47;28.30;28.90
610;DHT22;292;48.800;9.216;2022-08-11T14:21:20;28.20;29.30
610;DHT22;292;48.800;9.216;2022-08-11T14:24:08;28.20;29.70
610;DHT22;292;48.800;9.216;2022-08-11T14:26:36;28.20;29.70
610;DHT22;292;48.800;9.216;2022-08-11T14:29:10;28.10;30.50
610;DHT22;292;48.800;9.216;2022-08-11T14:31:42;28.20;31.40
610;DHT22;292;48.800;9.216;2022-08-11T14:34:11;28.20;30.40
610;DHT22;292;48.800;9.216;2022-08-11T14:36:42;27.90;49.80
610;DHT22;292;48.800;9.216;2022-08-11T14:39:11;27.70;35.20
610;DHT22;292;48.800;9.216;2022-08-11T14:41:42;27.60;33.80
610;DHT22;292;48.800;9.216;2022-08-11T14:44:26;27.60;33.60
610;DHT22;292;48.800;9.216;2022-08-11T14:47:12;27.60;33.70
610;DHT22;292;48.800;9.216;2022-08-11T14:49:41;27.60;33.30
610;DHT22;292;48.800;9.216;2022-08-11T14:52:13;27.60;33.20
610;DHT22;292;48.800;9.216;2022-08-11T14:54:42;27.70;32.90
610;DHT22;292;48.800;9.216;2022-08-11T14:57:28;27.70;32.20
610;DHT22;292;48.800;9.216;2022-08-11T14:59:58;27.70;31.80
610;DHT22;292;48.800;9.216;2022-08-11T15:02:26;27.70;31.40
610;DHT22;292;48.800;9.216;2022-08-11T15:05:12;27.80;31.30
610;DHT22;292;48.800;9.216;2022-08-11T15:07:42;27.80;31.80
610;DHT22;292;48.800;9.216;2022-08-11T15:10:12;27.80;31.70
610;DHT22;292;48.800;9.216;2022-08-11T15:12:40;27.80;31.70
610;DHT22;292;48.800;9.216;2022-08-11T15:15:09;27.80;31.40
610;DHT22;292;48.800;9.216;2022-08-11T15:17:55;27.80;31.40
610;DHT22;292;48.800;9.216;2022-08-11T15:20:25;27.90;31.60
610;DHT22;292;48.800;9.216;2022-08-11T15:23:12;27.90;31.30
610;DHT22;292;48.800;9.216;2022-08-11T15:25:58;27.90;31.30
610;DHT22;292;48.800;9.216;2022-08-11T15:28:27;27.90;31.00
610;DHT22;292;48.800;9.216;2022-08-11T15:31:14;27.90;31.40
610;DHT22;292;48.800;9.216;2022-08-11T15:34:16;27.90;31.60
610;DHT22;292;48.800;9.216;2022-08-11T15:37:06;28.00;31.70
610;DHT22;292;48.800;9.216;2022-08-11T15:40:07;28.00;31.80
610;DHT22;292;48.800;9.216;2022-08-11T15:43:02;28.00;32.80
610;DHT22;292;48.800;9.216;2022-08-11T15:45:51;28.00;32.00
610;DHT22;292;48.800;9.216;2022-08-11T15:48:27;28.00;32.00
610;DHT22;292;48.800;9.216;2022-08-11T15:50:57;28.00;31.40
610;DHT22;292;48.800;9.216;2022-08-11T15:53:31;28.10;31.60
610;DHT22;292;48.800;9.216;2022-08-11T15:56:01;28.10;32.10
610;DHT22;292;48.800;9.216;2022-08-11T15:58:31;28.10;31.70
610;DHT22;292;48.800;9.216;2022-08-11T16:01:18;28.10;31.40
610;DHT22;292;48.800;9.216;2022-08-11T16:04:06;28.10;31.40
610;DHT22;292;48.800;9.216;2022-08-11T16:06:43;28.10;31.30
610;DHT22;292;48.800;9.216;2022-08-11T16:09:13;28.10;31.70
610;DHT22;292;48.800;9.216;2022-08-11T16:11:43;28.10;31.60
610;DHT22;292;48.800;9.216;2022-08-11T16:14:12;28.10;32.00
610;DHT22;292;48.800;9.216;2022-08-11T16:16:57;28.20;32.40
610;DHT22;292;48.800;9.216;2022-08-11T16:19:27;28.20;32.50
610;DHT22;292;48.800;9.216;2022-08-11T16:22:00;28.20;32.20
610;DHT22;292;48.800;9.216;2022-08-11T16:24:30;28.20;31.80
610;DHT22;292;48.800;9.216;2022-08-11T16:27:00;28.20;32.10
610;DHT22;292;48.800;9.216;2022-08-11T16:29:30;28.20;32.10
610;DHT22;292;48.800;9.216;2022-08-11T16:31:58;28.20;32.00
610;DHT22;292;48.800;9.216;2022-08-11T16:34:47;28.20;32.50
610;DHT22;292;48.800;9.216;2022-08-11T16:37:33;28.20;32.40
610;DHT22;292;48.800;9.216;2022-08-11T16:40:20;28.20;32.40
610;DHT22;292;48.800;9.216;2022-08-11T16:42:51;28.20;32.80
610;DHT22;292;48.800;9.216;2022-08-11T16:45:37;28.20;32.50
610;DHT22;292;48.800;9.216;2022-08-11T16:48:24;28.20;32.50
610;DHT22;292;48.800;9.216;2022-08-11T16:50:53;28.20;32.40
610;DHT22;292;48.800;9.216;2022-08-11T16:53:21;28.20;32.40
610;DHT22;292;48.800;9.216;2022-08-11T16:55:50;28.20;31.80
610;DHT22;292;48.800;9.216;2022-08-11T16:58:22;28.20;31.70
610;DHT22;292;48.800;9.216;2022-08-11T17:01:08;28.20;31.40
610;DHT22;292;48.800;9.216;2022-08-11T17:03:44;28.20;31.60
610;DHT22;292;48.800;9.216;2022-08-11T17:06:29;28.20;31.20
610;DHT22;292;48.800;9.216;2022-08-11T17:09:19;28.20;31.30
610;DHT22;292;48.800;9.216;2022-08-11T17:12:05;28.20;31.20
610;DHT22;292;48.800;9.216;2022-08-11T17:14:55;28.30;31.20
610;DHT22;292;48.800;9.216;2022-08-11T17:17:27;28.30;30.80
610;DHT22;292;48.800;9.216;2022-08-11T17:19:59;28.30;31.20
610;DHT22;292;48.800;9.216;2022-08-11T17:22:29;28.30;31.30
610;DHT22;292;48.800;9.216;2022-08-11T17:25:15;28.30;30.80
610;DHT22;292;48.800;9.216;2022-08-11T17:27:44;28.30;30.60
610;DHT22;292;48.800;9.216;2022-08-11T17:30:14;28.30;30.80
610;DHT22;292;48.800;9.216;2022-08-11T17:32:47;28.30;30.50
610;DHT22;292;48.800;9.216;2022-08-11T17:35:35;28.30;30.60
610;DHT22;292;48.800;9.216;2022-08-11T17:38:06;28.30;30.90
610;DHT22;292;48.800;9.216;2022-08-11T17:40:36;28.30;30.50
610;DHT22;292;48.800;9.216;2022-08-11T17:43:07;28.30;30.50
610;DHT22;292;48.800;9.216;2022-08-11T17:45:54;28.30;30.40
610;DHT22;292;48.800;9.216;2022-08-11T17:48:41;28.30;30.20
610;DHT22;292;48.800;9.216;2022-08-11T17:51:11;28.20;30.10
610;DHT22;292;48.800;9.216;2022-08-11T17:54:00;28.20;29.90
610;DHT22;292;48.800;9.216;2022-08-11T17:56:45;28.20;29.80
610;DHT22;292;48.800;9.216;2022-08-11T17:59:32;28.20;29.70
610;DHT22;292;48.800;9.216;2022-08-11T18:02:27;28.20;29.70
610;DHT22;292;48.800;9.216;2022-08-11T18:05:13;28.20;29.60
610;DHT22;292;48.800;9.216;2022-08-11T18:07:43;28.10;29.60
610;DHT22;292;48.800;9.216;2022-08-11T18:10:30;28.10;29.40
610;DHT22;292;48.800;9.216;2022-08-11T18:13:15;28.10;29.70
610;DHT22;292;48.800;9.216;2022-08-11T18:16:00;28.10;29.70
610;DHT22;292;48.800;9.216;2022-08-11T18:18:45;28.10;29.60
610;DHT22;292;48.800;9.216;2022-08-11T18:21:30;28.10;29.70
610;DHT22;292;48.800;9.216;2022-08-11T18:24:15;28.10;29.40
610;DHT22;292;48.800;9.216;2022-08-11T18:27:03;28.10;29.40
610;DHT22;292;48.800;9.216;2022-08-11T18:29:50;28.10;29.40
610;DHT22;292;48.800;9.216;2022-08-11T18:32:37;28.10;29.70
610;DHT22;292;48.800;9.216;2022-08-11T18:35:24;28.10;29.70
610;DHT22;292;48.800;9.216;2022-08-11T18:38:10;28.10;30.10
610;DHT22;292;48.800;9.216;2022-08-11T18:40:57;28.10;30.40
610;DHT22;292;48.800;9.216;2022-08-11T18:43:44;28.00;30.60
610;DHT22;292;48.800;9.216;2022-08-11T18:46:32;28.00;30.90
610;DHT22;292;48.800;9.216;2022-08-11T18:49:20;28.00;31.00
610;DHT22;292;48.800;9.216;2022-08-11T18:52:10;28.00;31.20
610;DHT22;292;48.800;9.216;2022-08-11T18:54:57;28.00;31.30
610;DHT22;292;48.800;9.216;2022-08-11T18:57:45;28.00;31.60
610;DHT22;292;48.800;9.216;2022-08-11T19:00:30;28.00;31.70
610;DHT22;292;48.800;9.216;2022-08-11T19:03:16;28.00;31.80
610;DHT22;292;48.800;9.216;2022-08-11T19:06:04;28.00;32.10
610;DHT22;292;48.800;9.216;2022-08-11T19:08:53;28.00;32.20
610;DHT22;292;48.800;9.216;2022-08-11T19:11:38;28.00;32.40
610;DHT22;292;48.800;9.216;2022-08-11T19:14:24;28.00;32.50
610;DHT22;292;48.800;9.216;2022-08-11T19:17:09;28.00;32.60
610;DHT22;292;48.800;9.216;2022-08-11T19:19:56;28.00;32.80
610;DHT22;292;48.800;9.216;2022-08-11T19:22:41;28.00;32.90
610;DHT22;292;48.800;9.216;2022-08-11T19:25:29;28.00;33.20
610;DHT22;292;48.800;9.216;2022-08-11T19:28:16;28.00;33.20
610;DHT22;292;48.800;9.216;2022-08-11T19:31:02;28.00;33.30
610;DHT22;292;48.800;9.216;2022-08-11T19:33:49;28.00;33.60
610;DHT22;292;48.800;9.216;2022-08-11T19:36:35;28.00;33.60
610;DHT22;292;48.800;9.216;2022-08-11T19:39:21;28.00;33.60
610;DHT22;292;48.800;9.216;2022-08-11T19:42:09;28.00;33.80